Time;durP1;ratioP1;P1;durP2;ratioP2;P2;SDS_P1;SDS_P2;PMS_P1;PMS_P2;Temp;Humidity;BMP_temperature;BMP_pressure;BME280_temperature;BME280_humidity;BME280_pressure;Samples;Min_cycle;Max_cycle;Signal;HPM_P1;HPM_P2
2021/01/20 00:00:52;;;;;;;9.77;6.82;;;;;;;6.17;95.44;99163.34;5095772;28;20024;-83
2021/01/20 00:03:17;;;;;;;11.35;6.93;;;;;;;6.12;95.53;99166.00;5094535;28;20016;-83
2021/01/20 00:05:42;;;;;;;8.70;5.55;;;;;;;6.15;94.52;99158.22;5094534;28;20507;-83
2021/01/20 00:08:07;;;;;;;9.88;7.30;;;;;;;6.15;94.46;99167.66;5096117;28;20020;-83
2021/01/20 00:10:33;;;;;;;10.18;6.75;;;;;;;6.10;95.15;99154.91;5096203;28;20027;-83
2021/01/20 00:12:58;;;;;;;9.90;6.65;;;;;;;6.06;95.06;99165.31;5093159;28;20032;-83
2021/01/20 00:15:24;;;;;;;9.80;7.63;;;;;;;6.02;95.36;99155.97;5094171;28;20034;-83
2021/01/20 00:17:50;;;;;;;9.93;7.45;;;;;;;6.01;95.20;99156.84;5095983;28;20054;-82
2021/01/20 00:20:16;;;;;;;11.35;7.10;;;;;;;5.97;94.93;99148.34;5095065;28;20058;-83
2021/01/20 00:22:47;;;;;;;11.10;6.50;;;;;;;6.01;94.81;99146.56;5094548;28;20047;-83
2021/01/20 00:25:14;;;;;;;10.48;7.53;;;;;;;5.94;95.25;99158.69;5093457;28;20024;-83
2021/01/20 00:27:39;;;;;;;9.77;6.47;;;;;;;5.94;94.20;99157.00;5093408;28;20372;-83
2021/01/20 00:30:07;;;;;;;8.70;6.68;;;;;;;5.91;94.84;99148.44;5094325;28;20092;-83
2021/01/20 00:32:32;;;;;;;11.07;7.47;;;;;;;5.85;95.17;99148.56;5094636;28;20031;-83
2021/01/20 00:34:58;;;;;;;10.48;7.45;;;;;;;5.85;95.01;99143.41;5095286;28;20020;-83
2021/01/20 00:37:23;;;;;;;10.00;7.43;;;;;;;5.77;95.22;99147.03;5094206;28;20024;-82
2021/01/20 00:39:48;;;;;;;10.52;7.15;;;;;;;5.75;95.19;99151.34;5093144;28;20476;-83
2021/01/20 00:42:13;;;;;;;11.40;5.40;;;;;;;5.72;95.12;99148.84;5094859;28;20043;-83
2021/01/20 00:44:41;;;;;;;11.90;8.15;;;;;;;5.71;95.18;99154.88;5094557;28;20028;-83
2021/01/20 00:47:06;;;;;;;11.57;7.68;;;;;;;5.67;95.11;99150.69;5094900;28;20032;-83
2021/01/20 00:49:32;;;;;;;12.35;6.75;;;;;;;5.56;95.35;99155.19;5096897;28;20028;-82
2021/01/20 00:51:57;;;;;;;10.68;6.10;;;;;;;5.53;94.71;99150.09;5094110;28;20067;-83
2021/01/20 00:54:22;;;;;;;13.43;9.63;;;;;;;5.49;95.24;99156.19;5094030;28;20488;-82
2021/01/20 00:56:48;;;;;;;11.40;7.95;;;;;;;5.43;95.03;99148.59;5093866;28;20077;-83
2021/01/20 00:59:13;;;;;;;14.38;9.80;;;;;;;5.40;94.89;99149.50;5093579;28;20028;-83
2021/01/20 01:01:38;;;;;;;11.32;7.05;;;;;;;5.36;94.84;99141.88;5093761;28;20024;-83
2021/01/20 01:04:03;;;;;;;14.48;9.70;;;;;;;5.34;95.00;99148.78;5092670;28;20047;-82
2021/01/20 01:06:29;;;;;;;17.08;11.77;;;;;;;5.34;95.39;99147.06;5093944;28;20023;-83
2021/01/20 01:08:54;;;;;;;17.55;11.13;;;;;;;5.28;95.57;99144.59;5092777;28;20396;-83
2021/01/20 01:11:19;;;;;;;16.23;10.52;;;;;;;5.28;94.97;99140.31;5092878;28;20067;-83
2021/01/20 01:13:44;;;;;;;15.30;9.00;;;;;;;5.30;94.53;99133.44;5076748;28;498608;-82
2021/01/20 01:16:10;;;;;;;15.13;11.00;;;;;;;5.27;95.08;99130.91;5094281;28;20148;-82
2021/01/20 01:18:35;;;;;;;14.90;8.93;;;;;;;5.26;94.67;99133.50;5095348;28;20032;-83
2021/01/20 01:21:01;;;;;;;14.15;8.70;;;;;;;5.29;94.22;99126.56;5093003;28;20032;-83
2021/01/20 01:23:26;;;;;;;12.68;8.48;;;;;;;5.27;94.02;99123.19;5092774;28;20391;-82
2021/01/20 01:25:52;;;;;;;12.93;9.65;;;;;;;5.24;94.52;99128.41;5094543;28;20031;-82
2021/01/20 01:28:18;;;;;;;16.00;11.30;;;;;;;5.25;94.32;99126.66;5093393;28;20024;-82
2021/01/20 01:30:43;;;;;;;15.15;9.18;;;;;;;5.26;94.04;99120.66;5094634;28;20387;-82
2021/01/20 01:33:08;;;;;;;18.27;11.90;;;;;;;5.26;93.70;99128.34;5093705;28;20035;-82
2021/01/20 01:35:34;;;;;;;15.40;9.70;;;;;;;5.24;93.66;99119.84;5094075;28;20036;-82
2021/01/20 01:37:59;;;;;;;13.00;8.50;;;;;;;5.24;93.72;99118.13;5094697;28;20031;-82
2021/01/20 01:40:25;;;;;;;11.05;7.65;;;;;;;5.26;93.38;99112.94;5093410;28;20118;-82
2021/01/20 01:42:50;;;;;;;11.32;6.65;;;;;;;5.24;92.88;99109.56;5093238;28;20066;-82
2021/01/20 01:45:15;;;;;;;15.13;9.20;;;;;;;5.19;93.40;99113.94;5093858;28;20435;-83
2021/01/20 01:47:45;;;;;;;15.85;11.85;;;;;;;5.22;93.33;99107.00;5094881;28;20028;-82
2021/01/20 01:50:11;;;;;;;15.10;10.07;;;;;;;5.16;93.49;99108.88;5093225;28;20436;-82
2021/01/20 01:52:38;;;;;;;15.95;11.10;;;;;;;5.12;93.24;99097.81;5093444;28;20059;-82
2021/01/20 01:55:05;;;;;;;17.10;11.35;;;;;;;5.10;93.56;99099.53;5093563;28;20476;-82
2021/01/20 01:57:31;;;;;;;16.00;11.43;;;;;;;5.07;93.29;99103.00;5093038;28;20062;-82
2021/01/20 01:59:56;;;;;;;17.48;13.45;;;;;;;5.01;93.98;99099.72;5092880;28;20472;-82
2021/01/20 02:02:21;;;;;;;20.08;12.65;;;;;;;5.00;92.62;99095.47;5092735;28;20468;-82
2021/01/20 02:04:47;;;;;;;17.23;12.23;;;;;;;5.02;92.54;99096.31;5095003;28;20058;-83
2021/01/20 02:07:12;;;;;;;16.02;10.93;;;;;;;4.96;92.83;99098.97;5093158;28;20388;-82
2021/01/20 02:09:38;;;;;;;17.20;11.60;;;;;;;4.95;92.58;99100.69;5092764;28;20020;-83
2021/01/20 02:12:25;;;;;;;18.38;13.38;;;;;;;4.90;92.89;99099.09;5093927;28;20028;-82
2021/01/20 02:14:54;;;;;;;19.40;12.55;;;;;;;4.88;92.65;99099.13;5092921;28;20020;-82
2021/01/20 02:17:32;;;;;;;11.27;7.10;;;;;;;4.88;92.57;99095.69;5093105;28;20123;-83
2021/01/20 02:20:23;;;;;;;17.35;11.98;;;;;;;4.83;92.70;99088.94;5092558;28;20020;-83
2021/01/20 02:22:51;;;;;;;19.92;13.35;;;;;;;4.83;92.45;99090.63;5092812;28;20021;-83
2021/01/20 02:25:31;;;;;;;19.45;11.45;;;;;;;4.83;91.84;99081.22;5094347;28;20020;-83
2021/01/20 02:28:26;;;;;;;17.70;12.10;;;;;;;4.83;91.72;99075.22;5093395;28;20032;-82
2021/01/20 02:30:51;;;;;;;18.73;9.23;;;;;;;4.77;91.54;99073.63;5077843;28;20114;-83
2021/01/20 02:33:20;;;;;;;17.10;10.70;;;;;;;4.78;91.68;99077.88;5093010;28;20472;-82
2021/01/20 02:35:51;;;;;;;15.55;9.20;;;;;;;4.77;91.50;99075.34;5094574;28;20028;-82
2021/01/20 02:38:17;;;;;;;19.13;8.82;;;;;;;4.76;91.52;99084.78;5097466;28;20077;-82
2021/01/20 02:40:43;;;;;;;12.50;7.28;;;;;;;4.74;91.20;99083.97;5097882;28;20024;-83
2021/01/20 02:43:08;;;;;;;23.13;11.90;;;;;;;4.71;91.73;99091.72;5097784;28;20024;-82
2021/01/20 02:45:33;;;;;;;20.13;12.35;;;;;;;4.70;91.86;99090.03;5097556;28;20495;-83
2021/01/20 02:47:58;;;;;;;19.90;9.80;;;;;;;4.70;91.20;99078.91;5096670;28;20031;-83
2021/01/20 02:50:24;;;;;;;16.10;8.98;;;;;;;4.69;91.18;99072.09;5096966;28;20077;-83
2021/01/20 02:53:06;;;;;;;17.80;11.75;;;;;;;4.68;91.11;99086.66;5096428;28;20503;-83
2021/01/20 02:55:33;;;;;;;15.00;8.77;;;;;;;4.65;91.47;99075.56;5098106;28;20050;-83
2021/01/20 02:58:04;;;;;;;21.17;10.27;;;;;;;4.67;90.93;99084.94;5097684;28;20491;-83
2021/01/20 03:00:30;;;;;;;15.52;9.88;;;;;;;4.68;90.68;99086.66;5097572;28;20598;-83
2021/01/20 03:03:00;;;;;;;18.77;10.18;;;;;;;4.64;90.88;99082.41;5096594;28;20055;-83
2021/01/20 03:05:26;;;;;;;19.45;9.88;;;;;;;4.58;91.68;99085.09;5096644;28;20476;-83
2021/01/20 03:07:52;;;;;;;23.58;9.60;;;;;;;4.65;90.30;99084.13;5096341;28;20047;-83
2021/01/20 03:10:19;;;;;;;16.67;9.45;;;;;;;4.64;90.66;99082.41;5095486;28;20432;-83
2021/01/20 03:12:45;;;;;;;18.17;9.23;;;;;;;4.59;90.76;99077.38;5095452;28;20488;-83
2021/01/20 03:15:16;;;;;;;14.80;9.18;;;;;;;4.65;90.12;99070.44;5098158;28;20036;-82
2021/01/20 03:17:41;;;;;;;14.15;6.18;;;;;;;4.63;89.69;99065.34;5096914;28;20028;-83
2021/01/20 03:20:07;;;;;;;16.35;9.10;;;;;;;4.63;89.83;99070.47;5097358;28;20030;-83
2021/01/20 03:22:32;;;;;;;16.33;9.50;;;;;;;4.60;90.40;99058.53;5096205;28;20102;-83
2021/01/20 03:24:57;;;;;;;17.13;8.63;;;;;;;4.57;90.36;99062.88;5097377;28;20077;-82
2021/01/20 03:27:22;;;;;;;16.30;7.88;;;;;;;4.58;90.41;99067.97;5096413;28;20035;-82
2021/01/20 03:29:48;;;;;;;16.02;9.00;;;;;;;4.55;90.58;99056.91;5098391;28;20024;-83
2021/01/20 03:32:13;;;;;;;14.07;8.02;;;;;;;4.53;90.34;99054.38;5097969;28;20093;-82
2021/01/20 03:34:39;;;;;;;13.93;8.73;;;;;;;4.54;90.26;99058.63;5100426;28;20028;-82
2021/01/20 03:37:05;;;;;;;20.73;9.05;;;;;;;4.51;91.37;99063.00;5098302;28;20036;-82
2021/01/20 03:39:30;;;;;;;16.98;7.95;;;;;;;4.53;90.30;99056.97;5096716;28;20562;-82
2021/01/20 03:41:55;;;;;;;14.68;8.05;;;;;;;4.54;90.25;99050.09;5097409;28;20031;-82
2021/01/20 03:44:20;;;;;;;13.95;7.82;;;;;;;4.52;90.32;99051.84;5096378;28;20032;-83
2021/01/20 03:46:46;;;;;;;14.50;8.18;;;;;;;4.56;90.02;99043.22;5097643;28;20494;-83
2021/01/20 03:49:11;;;;;;;13.70;7.18;;;;;;;4.58;89.43;99036.31;5097634;28;20032;-83
2021/01/20 03:51:36;;;;;;;16.60;7.05;;;;;;;4.58;89.66;99047.44;5098283;28;20016;-82
2021/01/20 03:54:02;;;;;;;18.67;9.45;;;;;;;4.54;89.76;99024.41;5100735;28;20074;-82
2021/01/20 03:56:27;;;;;;;15.10;9.30;;;;;;;4.46;90.94;99032.25;5100118;28;20020;-82
2021/01/20 03:58:52;;;;;;;22.73;9.65;;;;;;;4.43;91.15;99029.72;5095311;28;20048;-82
2021/01/20 04:01:17;;;;;;;16.35;8.90;;;;;;;4.41;91.49;99026.38;5094959;28;20114;-82
2021/01/20 04:03:43;;;;;;;15.90;9.60;;;;;;;4.37;91.91;99019.56;5096892;28;20024;-83
2021/01/20 04:06:09;;;;;;;14.88;8.10;;;;;;;4.34;92.03;99014.50;5095507;28;20436;-83
2021/01/20 04:08:34;;;;;;;16.20;9.40;;;;;;;4.32;91.90;99011.97;5094509;28;20232;-83
2021/01/20 04:11:00;;;;;;;15.25;7.78;;;;;;;4.33;91.64;99007.69;5094307;28;20136;-83
2021/01/20 04:13:25;;;;;;;13.35;6.68;;;;;;;4.31;91.65;99005.16;5094500;28;20483;-82
2021/01/20 04:15:51;;;;;;;15.52;6.88;;;;;;;4.30;92.07;99012.88;5097143;28;20109;-82
2021/01/20 04:18:16;;;;;;;16.67;9.60;;;;;;;4.28;92.27;99005.22;5096933;28;20113;-82
2021/01/20 04:20:41;;;;;;;18.95;9.88;;;;;;;4.25;92.35;99010.41;5094838;28;20028;-83
2021/01/20 04:23:06;;;;;;;16.95;9.13;;;;;;;4.20;92.74;99006.22;5095262;28;20020;-82
2021/01/20 04:25:32;;;;;;;17.02;9.35;;;;;;;4.25;92.01;99018.09;5095240;28;20024;-83
2021/01/20 04:27:57;;;;;;;13.65;7.07;;;;;;;4.25;91.38;99007.84;5095605;28;20429;-83
2021/01/20 04:30:22;;;;;;;12.55;8.57;;;;;;;4.28;91.27;99007.78;5096130;28;20035;-83
2021/01/20 04:32:48;;;;;;;14.73;7.20;;;;;;;4.23;91.90;99009.56;5094472;28;20553;-82
2021/01/20 04:35:13;;;;;;;16.60;8.40;;;;;;;4.19;91.57;98995.09;5095461;28;20038;-82
2021/01/20 04:37:38;;;;;;;16.90;7.03;;;;;;;4.23;91.03;98995.91;5096249;28;20036;-83
2021/01/20 04:40:04;;;;;;;14.48;8.00;;;;;;;4.23;91.20;99001.03;5096015;28;20402;-83
2021/01/20 04:42:30;;;;;;;13.38;6.00;;;;;;;4.23;90.71;98996.75;5094214;28;20020;-83
2021/01/20 04:44:55;;;;;;;7.47;4.13;;;;;;;4.24;90.21;98992.44;5094252;28;20450;-83
2021/01/20 04:47:21;;;;;;;13.23;6.82;;;;;;;4.21;90.52;98985.66;5095180;28;20073;-83
2021/01/20 04:49:49;;;;;;;13.27;6.68;;;;;;;4.23;90.28;98999.31;5094230;28;20028;-83
2021/01/20 04:52:17;;;;;;;12.43;6.00;;;;;;;4.22;89.91;98995.06;5095911;28;20539;-83
2021/01/20 04:54:44;;;;;;;13.75;7.63;;;;;;;4.22;90.17;98989.06;5093934;28;20436;-83
2021/01/20 04:57:12;;;;;;;8.80;5.80;;;;;;;4.21;89.87;98987.38;5093693;28;20024;-83
2021/01/20 04:59:39;;;;;;;10.88;5.53;;;;;;;4.28;89.33;98989.81;5094225;28;20016;-83
2021/01/20 05:02:05;;;;;;;13.55;6.47;;;;;;;4.26;89.18;98983.00;5094052;28;20027;-83
2021/01/20 05:04:31;;;;;;;10.18;5.30;;;;;;;4.26;89.14;98986.41;5095233;28;20108;-83
2021/01/20 05:06:56;;;;;;;11.18;5.90;;;;;;;4.22;89.73;98984.78;5093639;28;20019;-83
2021/01/20 05:09:21;;;;;;;11.80;4.60;;;;;;;4.31;88.39;98974.38;5093410;28;20071;-83
2021/01/20 05:11:47;;;;;;;16.77;5.63;;;;;;;4.26;89.28;98971.03;5094708;28;20049;-83
2021/01/20 05:14:17;;;;;;;11.95;5.65;;;;;;;4.25;89.15;98974.47;5092929;28;20035;-83
2021/01/20 05:16:44;;;;;;;12.93;6.20;;;;;;;4.26;89.31;98968.47;5095266;28;20052;-83
2021/01/20 05:19:10;;;;;;;8.68;3.95;;;;;;;4.28;88.80;98963.28;5095325;28;20105;-83
2021/01/20 05:21:35;;;;;;;13.20;5.10;;;;;;;4.22;89.59;98964.25;5095449;28;20031;-83
2021/01/20 05:24:20;;;;;;;9.02;4.53;;;;;;;4.19;89.87;98963.44;5095403;28;20494;-83
2021/01/20 05:26:47;;;;;;;11.77;4.43;;;;;;;4.22;89.18;98969.41;5094632;28;20077;-83
2021/01/20 05:29:13;;;;;;;11.05;5.07;;;;;;;4.12;90.55;98967.84;5093528;28;20039;-83
2021/01/20 05:31:39;;;;;;;11.38;5.57;;;;;;;4.11;90.28;98951.63;5094678;28;20024;-82
2021/01/20 05:34:04;;;;;;;11.85;5.20;;;;;;;4.08;90.40;98950.81;5094849;28;20027;-82
2021/01/20 05:36:30;;;;;;;13.43;5.43;;;;;;;4.09;90.67;98960.22;5095817;28;20024;-82
2021/01/20 05:38:55;;;;;;;11.35;4.88;;;;;;;4.09;90.68;98955.91;5096490;28;20110;-82
2021/01/20 05:41:22;;;;;;;11.70;6.00;;;;;;;4.05;91.47;98948.31;5095068;28;20028;-83
2021/01/20 05:43:51;;;;;;;10.70;4.18;;;;;;;4.03;91.34;98950.88;5095634;28;20556;-82
2021/01/20 05:46:32;;;;;;;11.77;5.20;;;;;;;4.06;90.71;98948.28;5096227;28;20480;-82
2021/01/20 05:48:59;;;;;;;12.77;5.38;;;;;;;4.03;91.15;98957.75;5094858;28;20028;-83
2021/01/20 05:51:24;;;;;;;9.15;4.53;;;;;;;3.99;91.71;98945.84;5095018;28;20108;-82
2021/01/20 05:53:57;;;;;;;14.18;5.97;;;;;;;4.04;90.65;98959.47;5094528;28;20051;-82
2021/01/20 05:56:28;;;;;;;14.70;4.80;;;;;;;4.02;90.68;98948.38;5095589;28;20020;-82
2021/01/20 05:58:54;;;;;;;14.40;5.95;;;;;;;4.01;91.35;98950.09;5093741;28;20032;-83
2021/01/20 06:01:20;;;;;;;10.20;3.67;;;;;;;4.01;90.53;98936.44;5093237;28;20027;-83
2021/01/20 06:03:46;;;;;;;11.18;5.63;;;;;;;4.03;91.14;98942.34;5094909;28;20079;-83
2021/01/20 06:06:12;;;;;;;12.77;5.20;;;;;;;3.97;91.84;98937.34;5094920;28;20020;-83
2021/01/20 06:08:38;;;;;;;11.65;5.45;;;;;;;4.03;90.71;98934.66;5094350;28;20074;-83
2021/01/20 06:11:04;;;;;;;10.90;4.88;;;;;;;4.05;90.45;98936.34;5094816;28;20020;-83
2021/01/20 06:13:30;;;;;;;8.32;3.28;;;;;;;4.00;90.87;98947.53;5096981;28;20392;-82
2021/01/20 06:15:58;;;;;;;10.20;3.17;;;;;;;3.97;91.11;98945.88;5098108;28;20061;-82
2021/01/20 06:18:27;;;;;;;11.38;5.22;;;;;;;3.95;91.26;98924.56;5098192;28;20026;-83
2021/01/20 06:20:53;;;;;;;13.95;5.20;;;;;;;3.91;91.73;98930.63;5099986;28;20028;-83
2021/01/20 06:23:24;;;;;;;10.20;4.68;;;;;;;3.90;91.94;98929.75;5098057;28;20035;-83
2021/01/20 06:25:59;;;;;;;9.73;4.95;;;;;;;3.86;92.74;98940.09;5099298;28;20489;-83
2021/01/20 06:28:25;;;;;;;8.80;4.03;;;;;;;3.86;92.50;98925.56;5097647;28;20024;-83
2021/01/20 06:30:52;;;;;;;12.77;4.38;;;;;;;3.88;92.16;98918.69;5099490;28;20031;-83
2021/01/20 06:33:19;;;;;;;10.75;5.25;;;;;;;3.88;92.58;98926.38;5099943;28;20099;-83
2021/01/20 06:35:50;;;;;;;11.57;3.78;;;;;;;3.89;92.24;98925.50;5099530;28;20022;-82
2021/01/20 06:38:27;;;;;;;11.27;4.70;;;;;;;3.82;92.80;98926.50;5099407;28;20016;-83
2021/01/20 06:40:56;;;;;;;10.32;5.00;;;;;;;3.83;92.63;98925.59;5098865;28;20020;-84
2021/01/20 06:43:33;;;;;;;10.75;4.80;;;;;;;3.81;92.77;98923.94;5098235;28;20102;-83
2021/01/20 06:46:19;;;;;;;10.50;5.30;;;;;;;3.84;92.57;98929.84;5099150;28;20023;-83
2021/01/20 06:48:54;;;;;;;11.93;5.03;;;;;;;3.89;92.07;98934.91;5103525;28;20024;-83
2021/01/20 06:51:21;;;;;;;12.90;4.43;;;;;;;3.91;92.03;98934.03;5102601;28;20122;-83
2021/01/20 06:54:14;;;;;;;11.13;5.53;;;;;;;3.91;92.33;98933.19;5099325;28;20043;-83
2021/01/20 06:56:45;;;;;;;12.27;5.63;;;;;;;3.94;92.43;98938.22;5094939;28;20067;-84
2021/01/20 06:59:20;;;;;;;14.10;5.57;;;;;;;4.00;91.71;98922.72;5097339;28;20028;-83
2021/01/20 07:02:09;;;;;;;12.82;4.95;;;;;;;4.02;92.18;98927.84;5098875;28;20039;-84
2021/01/20 07:04:37;;;;;;;9.65;3.35;;;;;;;3.97;92.71;98924.50;5097416;28;20026;-83
2021/01/20 07:07:07;;;;;;;9.07;3.95;;;;;;;3.99;92.90;98925.34;5096517;28;20028;-83
2021/01/20 07:09:50;;;;;;;13.07;4.97;;;;;;;3.92;93.71;98922.88;5096522;28;20480;-83
2021/01/20 07:12:22;;;;;;;9.23;3.88;;;;;;;3.98;92.78;98929.63;5095163;28;20078;-83
2021/01/20 07:14:49;;;;;;;8.57;3.88;;;;;;;4.04;92.18;98914.13;5095578;28;20119;-83
2021/01/20 07:17:16;;;;;;;13.10;5.10;;;;;;;4.06;92.35;98919.22;5095438;28;20024;-83
2021/01/20 07:19:43;;;;;;;10.80;5.18;;;;;;;4.05;92.27;98918.38;5095512;28;20015;-83
2021/01/20 07:22:09;;;;;;;10.55;5.20;;;;;;;4.09;92.09;98911.47;5094971;28;20024;-83
2021/01/20 07:24:35;;;;;;;10.13;4.43;;;;;;;4.02;92.59;98899.63;5095181;28;20024;-83
2021/01/20 07:27:06;;;;;;;10.60;4.32;;;;;;;4.14;91.48;98904.53;5095632;28;20020;-83
2021/01/20 07:29:32;;;;;;;9.40;3.88;;;;;;;4.17;91.59;98891.66;5095001;28;20032;-83
2021/01/20 07:31:59;;;;;;;5.70;2.45;;;;;;;4.19;90.97;98895.03;5095119;28;20491;-83
2021/01/20 07:34:38;;;;;;;8.80;4.40;;;;;;;4.28;90.65;98902.56;5095751;28;20031;-83
2021/01/20 07:37:12;;;;;;;8.20;3.10;;;;;;;4.29;90.20;98893.13;5095615;28;20027;-84
2021/01/20 07:39:38;;;;;;;9.75;4.60;;;;;;;4.28;90.73;98897.44;5094858;28;20020;-84
2021/01/20 07:42:07;;;;;;;10.25;4.32;;;;;;;4.36;90.26;98900.66;5094735;28;20472;-84
2021/01/20 07:44:36;;;;;;;10.05;4.22;;;;;;;4.36;90.48;98889.56;5096957;28;20052;-85
2021/01/20 07:47:03;;;;;;;11.40;4.13;;;;;;;4.46;90.29;98892.78;5078073;28;20023;-85
2021/01/20 07:49:29;;;;;;;9.15;4.13;;;;;;;4.50;89.71;98887.56;5094979;28;20024;-84
2021/01/20 07:51:58;;;;;;;8.15;4.10;;;;;;;4.60;89.33;98880.53;5094582;28;20372;-85
2021/01/20 07:54:24;;;;;;;10.65;4.53;;;;;;;4.69;88.88;98885.47;5095162;28;20068;-84
2021/01/20 07:56:49;;;;;;;9.10;4.30;;;;;;;4.68;89.24;98886.34;5094314;28;20123;-84
2021/01/20 07:59:19;;;;;;;10.25;4.90;;;;;;;4.74;89.01;98888.78;5094652;28;20031;-85
2021/01/20 08:01:45;;;;;;;9.55;3.88;;;;;;;4.79;88.09;98889.50;5098746;28;20103;-83
2021/01/20 08:04:26;;;;;;;9.30;3.63;;;;;;;4.83;88.23;98886.03;5097369;28;20017;-83
2021/01/20 08:06:51;;;;;;;8.70;2.72;;;;;;;5.22;86.59;98885.13;5098090;28;20024;-81
2021/01/20 08:09:17;;;;;;;7.88;3.40;;;;;;;5.05;86.57;98888.13;5097441;28;20046;-82
2021/01/20 08:11:46;;;;;;;9.15;3.67;;;;;;;5.05;86.84;98880.41;5097721;28;20113;-83
2021/01/20 08:14:12;;;;;;;8.38;3.42;;;;;;;5.07;87.01;98888.91;5097843;28;20028;-82
2021/01/20 08:16:38;;;;;;;5.57;2.72;;;;;;;5.18;85.55;98883.53;5098959;28;20020;-82
2021/01/20 08:19:05;;;;;;;7.35;3.58;;;;;;;5.20;85.98;98881.75;5096939;28;20475;-82
2021/01/20 08:21:31;;;;;;;6.15;2.03;;;;;;;5.23;85.34;98874.84;5098329;28;20055;-82
2021/01/20 08:23:58;;;;;;;5.55;2.30;;;;;;;5.24;84.42;98871.38;5095909;28;20480;-82
2021/01/20 08:26:26;;;;;;;8.65;3.22;;;;;;;5.29;84.48;98878.97;5095954;28;20020;-82
2021/01/20 08:29:21;;;;;;;7.55;3.25;;;;;;;5.25;85.50;98880.75;5096361;28;20020;-82
2021/01/20 08:32:05;;;;;;;6.72;2.55;;;;;;;5.37;84.11;98883.94;5083632;28;20040;-81
2021/01/20 08:34:38;;;;;;;6.82;2.50;;;;;;;5.43;83.66;98897.47;5096190;28;20450;-82
2021/01/20 08:37:20;;;;;;;7.45;2.90;;;;;;;5.43;84.10;98888.94;5096005;28;20399;-83
2021/01/20 08:39:55;;;;;;;6.18;2.33;;;;;;;5.51;83.44;98887.00;5096251;28;20028;-84
2021/01/20 08:42:35;;;;;;;9.45;2.88;;;;;;;5.52;82.83;98886.13;5097057;28;20024;-83
2021/01/20 08:45:09;;;;;;;4.03;1.73;;;;;;;5.66;81.33;98867.78;5100997;28;20028;-82
2021/01/20 08:47:36;;;;;;;6.45;2.95;;;;;;;5.61;82.38;98877.34;5103411;28;20031;-82
2021/01/20 08:50:02;;;;;;;7.75;3.00;;;;;;;5.60;82.16;98884.19;5102017;28;20031;-82
2021/01/20 08:52:50;;;;;;;9.65;2.97;;;;;;;5.62;82.65;98897.03;5110851;28;20008;-82
2021/01/20 08:55:23;;;;;;;5.63;2.60;;;;;;;5.67;81.17;98879.75;5114916;28;20032;-82
2021/01/20 08:58:24;;;;;;;5.78;2.40;;;;;;;5.68;81.87;98881.44;5101213;28;20023;-82
2021/01/20 09:00:58;;;;;;;8.60;2.58;;;;;;;5.69;81.23;98894.25;5097961;28;20104;-83
2021/01/20 09:03:29;;;;;;;6.07;2.37;;;;;;;5.73;80.90;98889.91;5097751;28;20016;-83
2021/01/20 09:05:56;;;;;;;5.95;2.05;;;;;;;5.74;80.18;98889.84;5097524;28;20031;-83
2021/01/20 09:08:22;;;;;;;7.43;2.45;;;;;;;5.76;80.56;98897.53;5096386;28;20024;-83
2021/01/20 09:10:48;;;;;;;8.10;2.63;;;;;;;5.73;80.78;98888.16;5097280;28;20056;-83
2021/01/20 09:13:15;;;;;;;8.00;3.47;;;;;;;5.83;80.15;98885.34;5097821;28;20077;-83
2021/01/20 09:15:40;;;;;;;6.32;2.53;;;;;;;5.87;79.69;98892.94;5098392;28;20044;-83
2021/01/20 09:18:06;;;;;;;6.38;2.30;;;;;;;5.88;79.78;98870.63;5096184;28;20071;-83
2021/01/20 09:20:35;;;;;;;7.22;2.45;;;;;;;5.87;80.18;98881.81;5095888;28;20020;-82
2021/01/20 09:23:04;;;;;;;7.80;2.33;;;;;;;5.90;80.00;98884.31;5098052;28;20047;-82
2021/01/20 09:25:30;;;;;;;8.35;2.13;;;;;;;5.96;79.48;98861.84;5098551;28;20486;-82
2021/01/20 09:27:55;;;;;;;6.90;2.05;;;;;;;6.04;78.71;98874.53;5098757;28;20037;-83
2021/01/20 09:30:21;;;;;;;5.68;2.50;;;;;;;6.08;77.71;98873.56;5099149;28;20044;-82
2021/01/20 09:32:46;;;;;;;5.65;2.67;;;;;;;6.14;77.95;98872.53;5097552;28;20476;-83
2021/01/20 09:35:14;;;;;;;6.50;2.22;;;;;;;6.22;78.14;98876.59;5098612;28;20031;-83
2021/01/20 09:37:41;;;;;;;6.28;2.65;;;;;;;6.22;76.78;98868.88;5097808;28;20044;-82
2021/01/20 09:40:08;;;;;;;4.10;1.42;;;;;;;6.28;76.45;98879.88;5099001;28;20035;-83
2021/01/20 09:42:38;;;;;;;7.47;1.90;;;;;;;6.35;76.52;98876.25;5098410;28;20016;-83
2021/01/20 09:45:06;;;;;;;5.03;2.10;;;;;;;6.40;77.44;98884.69;5099190;28;20020;-82
2021/01/20 09:47:32;;;;;;;5.18;2.08;;;;;;;6.44;76.52;98882.00;5097110;28;20028;-82
2021/01/20 09:49:57;;;;;;;6.03;2.30;;;;;;;6.45;76.56;98881.09;5097180;28;20024;-83
2021/01/20 09:52:25;;;;;;;5.85;2.30;;;;;;;6.47;77.32;98885.38;5095817;28;20495;-84
2021/01/20 09:54:55;;;;;;;5.78;2.20;;;;;;;6.48;75.74;98869.88;5095603;28;20100;-83
2021/01/20 09:57:21;;;;;;;6.13;2.30;;;;;;;6.46;74.96;98863.91;5095542;28;20016;-83
2021/01/20 09:59:47;;;;;;;7.38;2.17;;;;;;;6.50;74.54;98870.69;5098847;28;20020;-84
2021/01/20 10:02:13;;;;;;;5.18;2.10;;;;;;;6.47;75.18;98863.03;5097020;28;20438;-84
2021/01/20 10:04:38;;;;;;;4.78;2.03;;;;;;;6.51;74.62;98869.78;5097558;28;20016;-84
2021/01/20 10:07:03;;;;;;;6.28;1.77;;;;;;;6.51;74.97;98863.78;5098431;28;20028;-83
2021/01/20 10:09:28;;;;;;;8.70;2.40;;;;;;;6.50;74.71;98862.94;5097549;28;20546;-84
2021/01/20 10:11:54;;;;;;;4.50;1.92;;;;;;;6.58;75.17;98865.28;5097267;28;20036;-83
2021/01/20 10:14:19;;;;;;;4.93;1.50;;;;;;;6.60;73.70;98864.34;5098178;28;20038;-83
2021/01/20 10:16:48;;;;;;;7.60;2.35;;;;;;;6.75;73.92;98867.38;5098262;28;20028;-83
2021/01/20 10:19:15;;;;;;;5.32;2.03;;;;;;;6.76;74.20;98869.06;5099337;28;20445;-83
2021/01/20 10:21:41;;;;;;;6.18;2.25;;;;;;;6.76;73.64;98858.75;5097128;28;20464;-83
2021/01/20 10:24:07;;;;;;;5.32;2.30;;;;;;;6.72;74.59;98857.16;5095990;28;20031;-82
2021/01/20 10:26:32;;;;;;;5.97;1.60;;;;;;;6.74;73.14;98847.63;5098785;28;20057;-83
2021/01/20 10:28:58;;;;;;;4.60;1.63;;;;;;;6.80;72.71;98856.03;5107054;28;20032;-83
2021/01/20 10:31:28;;;;;;;4.47;1.60;;;;;;;6.94;72.04;98847.03;5096057;28;20039;-83
2021/01/20 10:33:53;;;;;;;5.50;2.30;;;;;;;7.37;72.42;98847.34;5095599;28;20012;-83
2021/01/20 10:36:18;;;;;;;5.78;2.20;;;;;;;7.22;71.73;98840.13;5096346;28;20024;-83
2021/01/20 10:38:44;;;;;;;7.38;2.42;;;;;;;7.31;72.06;98842.41;5097287;28;20107;-83
2021/01/20 10:41:09;;;;;;;4.40;1.35;;;;;;;7.18;71.70;98829.97;5095636;28;20020;-83
2021/01/20 10:43:34;;;;;;;6.50;2.13;;;;;;;7.15;72.50;98842.06;5095556;28;20020;-83
2021/01/20 10:45:59;;;;;;;6.63;2.03;;;;;;;7.15;73.01;98839.47;5096737;28;20418;-83
2021/01/20 10:48:25;;;;;;;5.93;1.88;;;;;;;7.07;73.49;98833.72;5096950;28;20030;-82
2021/01/20 10:50:50;;;;;;;4.38;1.67;;;;;;;7.20;72.93;98841.06;5098082;28;20024;-82
2021/01/20 10:53:16;;;;;;;5.38;2.08;;;;;;;7.19;72.84;98841.97;5096273;28;20027;-82
2021/01/20 10:55:41;;;;;;;5.65;1.95;;;;;;;7.13;73.24;98835.25;5096425;28;20035;-82
2021/01/20 10:58:06;;;;;;;5.70;1.98;;;;;;;7.09;72.77;98842.25;5099025;28;20040;-82
2021/01/20 11:00:32;;;;;;;5.00;2.08;;;;;;;7.08;73.82;98840.56;5100433;28;20035;-82
2021/01/20 11:02:57;;;;;;;5.20;1.73;;;;;;;7.21;72.64;98835.88;5101698;28;20025;-83
2021/01/20 11:05:22;;;;;;;5.47;2.00;;;;;;;7.29;71.82;98826.13;5099410;28;20035;-82
2021/01/20 11:07:47;;;;;;;5.53;1.80;;;;;;;7.39;70.99;98824.09;5102603;28;20333;-83
2021/01/20 11:10:13;;;;;;;4.93;1.75;;;;;;;7.34;72.72;98826.81;5100658;28;20161;-83
2021/01/20 11:12:38;;;;;;;5.63;1.55;;;;;;;7.46;71.41;98828.16;5098043;28;20035;-83
2021/01/20 11:15:04;;;;;;;4.57;1.42;;;;;;;7.52;70.21;98820.22;5099813;28;20496;-82
2021/01/20 11:17:29;;;;;;;5.22;1.88;;;;;;;7.57;70.58;98843.25;5098480;28;20020;-82
2021/01/20 11:19:54;;;;;;;4.70;1.48;;;;;;;7.64;70.36;98828.44;5099870;28;20145;-82
2021/01/20 11:22:19;;;;;;;4.55;1.88;;;;;;;7.68;70.35;98833.44;5099013;28;20071;-82
2021/01/20 11:24:45;;;;;;;5.72;1.77;;;;;;;7.55;70.44;98834.75;5100188;28;20387;-83
2021/01/20 11:27:10;;;;;;;3.20;1.23;;;;;;;7.51;70.78;98833.16;5099620;28;20027;-83
2021/01/20 11:29:35;;;;;;;7.65;1.75;;;;;;;7.56;71.94;98826.94;5100410;28;20430;-82
2021/01/20 11:32:00;;;;;;;5.30;1.75;;;;;;;7.56;71.68;98814.03;5098254;28;20502;-82
2021/01/20 11:34:26;;;;;;;4.60;1.92;;;;;;;7.65;71.07;98817.22;5098019;28;20148;-82
2021/01/20 11:36:51;;;;;;;5.30;1.90;;;;;;;7.58;71.63;98814.84;5098984;28;20019;-82
2021/01/20 11:39:16;;;;;;;4.85;1.83;;;;;;;7.59;71.28;98823.44;5100317;28;20031;-82